createdAt,value
2023-04-15T00:02:48.647Z,24.33
2023-04-15T00:07:54.864Z,25.97
2023-04-15T00:13:00.395Z,26.60
2023-04-15T00:18:05.918Z,27.97
2023-04-15T00:23:11.909Z,29.23
2023-04-15T00:28:17.816Z,26.70
2023-04-15T00:33:24.072Z,28.67
2023-04-15T00:38:30.593Z,29.37
2023-04-15T00:43:36.662Z,27.03
2023-04-15T00:48:43.080Z,27.87
2023-04-15T00:53:48.669Z,26.37
2023-04-15T00:58:54.186Z,25.73
2023-04-15T01:03:59.865Z,29.03
2023-04-15T01:09:05.637Z,30.37
2023-04-15T01:14:12.101Z,28.47
2023-04-15T01:19:18.696Z,26.43
2023-04-15T01:24:25.333Z,28.37
2023-04-15T01:29:33.367Z,26.77
2023-04-15T01:34:38.903Z,25.30
2023-04-15T01:39:44.855Z,24.93
2023-04-15T01:44:50.310Z,23.10
2023-04-15T01:49:56.388Z,23.77
2023-04-15T01:55:02.164Z,21.67
2023-04-15T02:00:09.096Z,24.43
2023-04-15T02:05:20.459Z,23.63
2023-04-15T02:10:26.359Z,24.67
2023-04-15T02:15:31.934Z,23.00
2023-04-15T02:20:38.131Z,23.93
2023-04-15T02:25:43.570Z,20.97
2023-04-15T02:30:53.231Z,20.83
2023-04-15T02:35:59.492Z,22.17
2023-04-15T02:41:05.923Z,19.50
2023-04-15T02:46:14.974Z,18.00
2023-04-15T02:51:23.037Z,19.33
2023-04-15T02:56:28.858Z,19.03
2023-04-15T03:02:29.064Z,18.20
2023-04-15T03:07:56.320Z,17.70
2023-04-15T03:13:02.169Z,15.77
2023-04-15T03:18:07.902Z,16.97
2023-04-15T03:23:13.656Z,17.07
2023-04-15T03:28:19.334Z,17.90
2023-04-15T03:33:26.584Z,15.43
2023-04-15T03:38:32.641Z,16.50
2023-04-15T03:43:38.170Z,15.20
2023-04-15T03:48:43.676Z,14.93
2023-04-15T03:53:49.352Z,15.50
2023-04-15T03:58:54.930Z,17.13
2023-04-15T04:04:00.593Z,17.60
2023-04-15T04:09:06.243Z,15.33
2023-04-15T04:14:11.756Z,19.37
2023-04-15T04:19:18.836Z,18.10
2023-04-15T04:24:24.356Z,16.00
2023-04-15T04:29:30.126Z,18.87
2023-04-15T04:34:35.712Z,16.53
2023-04-15T04:39:41.286Z,15.63
2023-04-15T04:44:47.296Z,18.43
2023-04-15T04:49:52.793Z,14.90
2023-04-15T04:54:58.480Z,16.87
2023-04-15T05:00:05.229Z,16.40
2023-04-15T05:05:11.902Z,14.30
2023-04-15T05:10:18.453Z,17.30
2023-04-15T05:15:24.210Z,14.70
2023-04-15T05:20:30.035Z,15.03
2023-04-15T05:25:35.622Z,17.73
2023-04-15T05:30:41.990Z,16.00
2023-04-15T05:35:47.520Z,13.73
2023-04-15T05:40:53.036Z,14.00
2023-04-15T05:45:58.569Z,14.77
2023-04-15T05:51:04.166Z,14.70
2023-04-15T05:56:09.845Z,16.40
2023-04-15T06:01:15.539Z,16.83
2023-04-15T06:06:21.047Z,14.03
2023-04-15T06:11:27.505Z,13.50
2023-04-15T06:16:32.996Z,15.87
2023-04-15T06:21:38.988Z,13.43
2023-04-15T06:26:44.789Z,16.03
2023-04-15T06:31:50.699Z,13.43
2023-04-15T06:36:56.303Z,15.03
2023-04-15T06:42:02.143Z,13.43
2023-04-15T06:47:07.652Z,14.03
2023-04-15T06:52:13.192Z,11.63
2023-04-15T06:57:18.930Z,14.87
2023-04-15T07:02:25.030Z,13.13
2023-04-15T07:07:30.669Z,11.63
2023-04-15T07:12:36.677Z,15.47
2023-04-15T07:17:44.885Z,12.37
2023-04-15T07:22:50.473Z,13.50
2023-04-15T07:27:59.820Z,14.03
2023-04-15T07:33:08.315Z,14.03
2023-04-15T07:38:15.731Z,13.03
2023-04-15T07:43:24.821Z,14.90
2023-04-15T07:48:37.576Z,15.80
2023-04-15T07:53:46.649Z,15.73
2023-04-15T07:58:56.894Z,14.27
2023-04-15T08:04:03.342Z,11.87
2023-04-15T08:09:10.095Z,12.90
2023-04-15T08:14:17.492Z,13.07
2023-04-15T08:19:25.774Z,11.00
2023-04-15T08:24:35.762Z,13.07
2023-04-15T08:29:42.680Z,13.40
2023-04-15T08:34:49.009Z,11.17
2023-04-15T08:39:54.467Z,11.83
2023-04-15T08:45:02.071Z,12.50
2023-04-15T08:50:11.877Z,11.53
2023-04-15T08:55:18.160Z,11.60
2023-04-15T09:00:24.482Z,12.20
2023-04-15T09:05:33.778Z,12.97
2023-04-15T09:10:40.130Z,10.63
2023-04-15T09:15:45.721Z,13.03
2023-04-15T09:20:54.386Z,10.73
2023-04-15T09:26:00.032Z,11.50
2023-04-15T09:31:05.641Z,11.73
2023-04-15T09:36:11.488Z,12.97
2023-04-15T09:41:19.986Z,10.90
2023-04-15T09:46:43.079Z,11.50
2023-04-15T09:52:01.670Z,12.43
2023-04-15T09:56:56.807Z,10.80
2023-04-15T10:02:04.265Z,10.90
2023-04-15T10:07:14.722Z,12.40
2023-04-15T10:12:21.427Z,11.93
2023-04-15T10:17:31.706Z,14.03
2023-04-15T10:22:38.888Z,13.27
2023-04-15T10:27:44.415Z,15.10
2023-04-15T10:32:51.098Z,11.90
2023-04-15T10:37:56.685Z,12.27
2023-04-15T10:43:05.498Z,9.67
2023-04-15T10:48:11.675Z,14.00
2023-04-15T10:53:21.799Z,9.00
2023-04-15T10:58:29.135Z,8.83
2023-04-15T11:03:40.611Z,10.57
2023-04-15T11:09:02.106Z,9.33
2023-04-15T11:14:09.142Z,9.27
2023-04-15T11:19:14.656Z,8.83
2023-04-15T11:24:29.187Z,8.20
2023-04-15T11:29:34.773Z,8.23
2023-04-15T11:34:40.277Z,7.40
2023-04-15T11:39:45.856Z,8.70
2023-04-15T11:44:51.778Z,8.13
2023-04-15T11:49:57.574Z,8.03
2023-04-15T11:55:06.201Z,9.27
2023-04-15T12:00:12.566Z,9.43
2023-04-15T12:05:18.228Z,7.67
2023-04-15T12:10:28.252Z,9.03
2023-04-15T12:15:33.716Z,9.77
2023-04-15T12:20:47.370Z,10.33
2023-04-15T12:25:55.658Z,9.17
2023-04-15T12:31:03.926Z,8.60
2023-04-15T12:36:09.707Z,8.13
2023-04-15T12:41:15.443Z,7.93
2023-04-15T12:46:21.827Z,8.07
2023-04-15T12:51:27.961Z,6.87
2023-04-15T12:56:33.536Z,7.20
2023-04-15T13:01:39.084Z,8.30
2023-04-15T13:06:45.193Z,7.40
2023-04-15T13:11:51.497Z,6.57
2023-04-15T13:16:57.220Z,6.77
2023-04-15T13:22:02.986Z,7.30
2023-04-15T13:27:08.439Z,6.13
2023-04-15T13:32:14.128Z,6.83
2023-04-15T13:37:19.639Z,6.33
2023-04-15T13:42:26.023Z,6.33
2023-04-15T13:47:31.642Z,6.17
2023-04-15T13:52:37.377Z,6.87
2023-04-15T13:57:42.968Z,8.27
2023-04-15T14:02:48.668Z,6.93
2023-04-15T14:07:54.544Z,8.03
2023-04-15T14:13:00.054Z,8.20
2023-04-15T14:18:05.680Z,6.27
2023-04-15T14:23:11.322Z,6.57
2023-04-15T14:28:17.109Z,7.80
2023-04-15T14:33:23.189Z,7.13
2023-04-15T14:38:28.853Z,5.37
2023-04-15T14:43:34.548Z,7.37
2023-04-15T14:48:40.363Z,5.73
2023-04-15T14:53:46.255Z,7.60
2023-04-15T14:58:53.308Z,7.50
2023-04-15T15:03:58.949Z,9.00
2023-04-15T15:09:06.377Z,6.63
2023-04-15T15:14:12.158Z,5.30
2023-04-15T15:19:17.734Z,5.83
2023-04-15T15:24:23.266Z,7.20
2023-04-15T15:29:28.861Z,7.67
2023-04-15T15:34:34.365Z,13.37
2023-04-15T15:39:39.889Z,14.27
2023-04-15T15:44:45.494Z,13.90
2023-04-15T15:49:51.312Z,11.50
2023-04-15T15:54:57.295Z,13.40
2023-04-15T16:05:09.830Z,14.47
2023-04-15T16:10:15.361Z,11.00
2023-04-15T16:15:20.955Z,7.90
2023-04-15T16:20:26.695Z,8.20
2023-04-15T16:25:32.213Z,8.20
2023-04-15T16:30:38.834Z,9.03
2023-04-15T16:35:44.344Z,8.37
2023-04-15T16:40:49.946Z,8.50
2023-04-15T16:45:55.687Z,9.93
2023-04-15T16:51:01.568Z,8.23
2023-04-15T16:56:07.375Z,11.10
2023-04-15T17:01:12.903Z,8.83
2023-04-15T17:06:18.714Z,8.53
2023-04-15T17:11:24.315Z,8.77
2023-04-15T17:16:29.895Z,10.43
2023-04-15T17:21:36.240Z,13.23
2023-04-15T17:26:41.804Z,9.93
2023-04-15T17:31:47.649Z,10.43
2023-04-15T17:36:53.741Z,11.03
2023-04-15T17:41:59.395Z,12.10
2023-04-15T17:47:05.070Z,11.07
2023-04-15T17:52:10.618Z,12.23
2023-04-15T17:57:17.218Z,13.30
2023-04-15T18:02:22.995Z,15.07
2023-04-15T18:07:28.818Z,13.53
2023-04-15T18:12:34.284Z,13.90
2023-04-15T18:17:39.841Z,15.73
2023-04-15T18:22:45.485Z,14.83
2023-04-15T18:27:51.146Z,16.10
2023-04-15T18:32:56.769Z,14.77
2023-04-15T18:38:02.822Z,15.93
2023-04-15T18:43:09.641Z,17.23
2023-04-15T18:48:16.070Z,15.37
2023-04-15T18:53:22.254Z,17.07
2023-04-15T18:58:28.624Z,17.20
2023-04-15T19:03:35.825Z,16.87
2023-04-15T19:08:41.465Z,19.10
2023-04-15T19:13:47.091Z,19.60
2023-04-15T19:18:52.638Z,17.17
2023-04-15T19:23:59.925Z,16.77
2023-04-15T19:29:05.668Z,16.10
2023-04-15T19:34:11.591Z,16.80
2023-04-15T19:39:17.298Z,16.13
2023-04-15T19:44:24.096Z,16.77
2023-04-15T19:49:29.697Z,13.63
2023-04-15T19:54:35.309Z,14.20
2023-04-15T19:59:42.242Z,14.77
2023-04-15T20:04:47.852Z,16.50
2023-04-15T20:09:53.788Z,15.23
2023-04-15T20:14:59.273Z,16.40
2023-04-15T20:20:06.689Z,17.27
2023-04-15T20:25:12.228Z,16.30
2023-04-15T20:30:17.674Z,15.43
2023-04-15T20:35:25.173Z,16.17
2023-04-15T20:40:32.779Z,14.23
2023-04-15T20:45:38.398Z,15.17
2023-04-15T20:50:43.858Z,15.03
2023-04-15T20:55:49.487Z,15.73
2023-04-15T21:00:55.451Z,16.13
2023-04-15T21:06:01.224Z,17.60
2023-04-15T21:11:06.755Z,16.53
2023-04-15T21:16:12.318Z,17.57
2023-04-15T21:21:18.095Z,16.10
2023-04-15T21:26:23.612Z,17.23
2023-04-15T21:31:29.138Z,20.77
2023-04-15T21:36:35.009Z,21.17
2023-04-15T21:41:40.599Z,14.87
2023-04-15T21:46:46.482Z,16.07
2023-04-15T21:51:52.162Z,16.37
2023-04-15T21:56:58.004Z,14.10
2023-04-15T22:02:03.640Z,14.20
2023-04-15T22:07:09.391Z,14.50
2023-04-15T22:12:14.930Z,13.33
2023-04-15T22:17:20.527Z,13.10
2023-04-15T22:22:26.689Z,12.33
2023-04-15T22:27:33.655Z,12.50
2023-04-15T22:32:39.323Z,12.60
2023-04-15T22:37:44.902Z,11.87
2023-04-15T22:42:50.489Z,11.97
2023-04-15T22:47:56.983Z,11.80
2023-04-15T22:53:02.617Z,10.73
2023-04-15T22:58:08.112Z,10.27
2023-04-15T23:03:14.009Z,13.40
2023-04-15T23:08:20.225Z,10.60
2023-04-15T23:13:25.741Z,10.50
2023-04-15T23:18:31.759Z,11.53
2023-04-15T23:23:37.205Z,11.13
2023-04-15T23:28:42.930Z,11.53
2023-04-15T23:33:48.576Z,10.10
2023-04-15T23:38:54.165Z,12.93
2023-04-15T23:43:59.608Z,11.73
2023-04-15T23:49:05.061Z,11.67
2023-04-15T23:54:10.644Z,12.23
2023-04-15T23:59:16.328Z,9.53
